Time;durP1;ratioP1;P1;durP2;ratioP2;P2;SDS_P1;SDS_P2;PMS_P1;PMS_P2;Temp;Humidity;BMP_temperature;BMP_pressure;BME280_temperature;BME280_humidity;BME280_pressure;Samples;Min_cycle;Max_cycle;Signal;HPM_P1;HPM_P2
2023/04/14 00:04:10;;;;;;;2.97;2.47;;;;;;;;;;5034971;28;20262;-29
2023/04/14 00:07:12;;;;;;;2.77;2.37;;;;;;;;;;5027560;28;20218;-26
2023/04/14 00:10:09;;;;;;;4.17;3.10;;;;;;;;;;5028369;28;20225;-27
2023/04/14 00:12:54;;;;;;;2.73;2.40;;;;;;;;;;5025388;28;20204;-26
2023/04/14 00:15:39;;;;;;;2.50;2.30;;;;;;;;;;5036026;28;20213;-26
2023/04/14 00:21:12;;;;;;;4.23;2.50;;;;;;;;;;5021097;28;20208;-29
2023/04/14 00:23:48;;;;;;;2.80;2.60;;;;;;;;;;5016526;28;20318;-29
2023/04/14 00:26:24;;;;;;;3.50;2.80;;;;;;;;;;5023997;28;20217;-30
2023/04/14 00:29:02;;;;;;;3.47;3.10;;;;;;;;;;5019645;28;20195;-29
2023/04/14 00:34:31;;;;;;;2.80;2.47;;;;;;;;;;5040800;28;20234;-26
2023/04/14 00:40:38;;;;;;;6.27;2.90;;;;;;;;;;5334061;22;20325;-26
2023/04/14 00:43:27;;;;;;;4.67;2.90;;;;;;;;;;5091701;22;20923;-33
2023/04/14 00:46:17;;;;;;;5.13;2.70;;;;;;;;;;5771356;22;20243;-28
2023/04/14 00:51:53;;;;;;;3.47;3.17;;;;;;;;;;5305270;22;20245;-26
2023/04/14 00:57:44;;;;;;;4.43;3.10;;;;;;;;;;5049151;28;20325;-28
2023/04/14 01:00:34;;;;;;;3.37;2.93;;;;;;;;;;5053500;28;20206;-29
2023/04/14 01:14:30;;;;;;;5.30;3.47;;;;;;;;;;5043606;28;20240;-34
2023/04/14 01:17:39;;;;;;;4.43;3.60;;;;;;;;;;5136808;22;20272;-27
2023/04/14 01:25:35;;;;;;;4.40;3.17;;;;;;;;;;5044853;28;20221;-34
2023/04/14 01:28:11;;;;;;;6.30;2.83;;;;;;;;;;5033657;28;20209;-40
2023/04/14 01:30:54;;;;;;;3.87;3.37;;;;;;;;;;5032561;28;20226;-40
2023/04/14 01:33:28;;;;;;;4.13;3.50;;;;;;;;;;5033109;28;20229;-38
2023/04/14 01:35:56;;;;;;;3.83;2.70;;;;;;;;;;5042956;28;20210;-40
2023/04/14 01:38:28;;;;;;;4.83;3.50;;;;;;;;;;5052406;28;20233;-39
2023/04/14 01:41:10;;;;;;;4.23;3.40;;;;;;;;;;5046096;28;20237;-35
2023/04/14 01:43:41;;;;;;;3.93;2.87;;;;;;;;;;5032367;28;20221;-40
2023/04/14 01:46:12;;;;;;;3.37;2.93;;;;;;;;;;5043746;28;20213;-38
2023/04/14 01:48:54;;;;;;;3.40;2.90;;;;;;;;;;5049792;28;20651;-36
2023/04/14 01:51:26;;;;;;;6.80;4.00;;;;;;;;;;5044432;28;20233;-39
2023/04/14 01:54:02;;;;;;;3.53;2.63;;;;;;;;;;5034140;28;21203;-41
2023/04/14 01:56:37;;;;;;;4.80;2.87;;;;;;;;;;5052477;28;20241;-38
2023/04/14 01:59:08;;;;;;;3.30;2.97;;;;;;;;;;5047513;28;20209;-36
2023/04/14 02:01:36;;;;;;;4.70;2.80;;;;;;;;;;5046932;28;20207;-41
2023/04/14 02:07:04;;;;;;;4.83;3.10;;;;;;;;;;5033541;28;20199;-44
2023/04/14 02:09:53;;;;;;;3.27;2.83;;;;;;;;;;5035679;28;20226;-40
2023/04/14 02:12:24;;;;;;;2.70;2.47;;;;;;;;;;5043981;28;20606;-42
2023/04/14 02:14:56;;;;;;;3.03;2.77;;;;;;;;;;5043994;28;20233;-43
2023/04/14 02:17:29;;;;;;;4.03;2.60;;;;;;;;;;5052207;28;20202;-41
2023/04/14 02:20:10;;;;;;;3.87;2.63;;;;;;;;;;5054621;28;20198;-41
2023/04/14 02:23:05;;;;;;;2.27;2.00;;;;;;;;;;5034523;28;20209;-39
2023/04/14 02:25:54;;;;;;;4.53;2.87;;;;;;;;;;5043149;28;20214;-42
2023/04/14 02:28:24;;;;;;;3.47;2.50;;;;;;;;;;5041454;28;20210;-41
2023/04/14 02:30:56;;;;;;;3.00;2.70;;;;;;;;;;5035264;28;20813;-43
2023/04/14 02:33:27;;;;;;;2.90;2.50;;;;;;;;;;5033176;28;20253;-40
2023/04/14 02:36:01;;;;;;;2.87;2.57;;;;;;;;;;5045507;28;20198;-40
2023/04/14 02:38:32;;;;;;;2.90;2.60;;;;;;;;;;5050884;28;20547;-37
2023/04/14 02:43:53;;;;;;;2.63;2.37;;;;;;;;;;5044323;28;20237;-37
2023/04/14 02:46:31;;;;;;;2.47;2.27;;;;;;;;;;5042558;28;20740;-43
2023/04/14 02:49:03;;;;;;;2.77;2.37;;;;;;;;;;5049347;28;20675;-39
2023/04/14 02:51:32;;;;;;;3.10;2.80;;;;;;;;;;5052876;28;20253;-40
2023/04/14 02:53:59;;;;;;;3.73;2.83;;;;;;;;;;5053415;28;20221;-39
2023/04/14 02:56:27;;;;;;;4.80;3.07;;;;;;;;;;5040225;28;20209;-41
2023/04/14 02:58:54;;;;;;;2.80;2.60;;;;;;;;;;5037505;28;20202;-37
2023/04/14 03:01:22;;;;;;;3.43;2.57;;;;;;;;;;5046980;28;20205;-40
2023/04/14 03:03:57;;;;;;;2.87;2.33;;;;;;;;;;5042832;28;20226;-35
2023/04/14 03:06:26;;;;;;;3.57;2.70;;;;;;;;;;5041779;28;20207;-35
2023/04/14 03:08:55;;;;;;;4.20;2.60;;;;;;;;;;5050329;28;20212;-44
2023/04/14 03:11:22;;;;;;;2.73;2.50;;;;;;;;;;5044079;28;20226;-42
2023/04/14 03:14:02;;;;;;;2.93;2.50;;;;;;;;;;5046142;28;20228;-39
2023/04/14 03:16:38;;;;;;;3.07;2.27;;;;;;;;;;5050012;28;20213;-44
2023/04/14 03:19:06;;;;;;;2.57;2.30;;;;;;;;;;5043443;28;20206;-41
2023/04/14 03:21:34;;;;;;;3.30;2.43;;;;;;;;;;5042578;28;20652;-41
2023/04/14 03:24:14;;;;;;;2.40;2.20;;;;;;;;;;5055780;28;20699;-37
2023/04/14 03:26:55;;;;;;;3.60;2.47;;;;;;;;;;5041534;28;20202;-36
2023/04/14 03:29:26;;;;;;;2.60;2.33;;;;;;;;;;5036615;28;20210;-37
2023/04/14 03:31:58;;;;;;;2.90;2.40;;;;;;;;;;5037615;28;20236;-39
2023/04/14 03:34:31;;;;;;;5.53;2.33;;;;;;;;;;5050658;28;20229;-43
2023/04/14 03:36:59;;;;;;;2.50;2.30;;;;;;;;;;5046605;28;20201;-42
2023/04/14 03:39:34;;;;;;;2.97;2.40;;;;;;;;;;5048471;28;20208;-44
2023/04/14 03:42:02;;;;;;;2.47;2.27;;;;;;;;;;5033119;28;20641;-44
2023/04/14 03:44:55;;;;;;;2.90;2.27;;;;;;;;;;5051862;28;20299;-36
2023/04/14 03:47:25;;;;;;;3.20;2.70;;;;;;;;;;5050043;28;20359;-40
2023/04/14 03:50:00;;;;;;;2.30;2.10;;;;;;;;;;5040845;28;20227;-44
2023/04/14 03:52:27;;;;;;;2.57;2.13;;;;;;;;;;5048994;28;20209;-40
2023/04/14 03:54:58;;;;;;;4.03;2.23;;;;;;;;;;5046225;28;20212;-38
2023/04/14 03:57:28;;;;;;;2.23;2.03;;;;;;;;;;5048155;28;20252;-39
2023/04/14 03:59:55;;;;;;;3.03;2.23;;;;;;;;;;5033019;28;20260;-42
2023/04/14 04:02:22;;;;;;;1.97;1.80;;;;;;;;;;5042564;28;20205;-40
2023/04/14 04:04:50;;;;;;;3.67;2.20;;;;;;;;;;5037591;28;20228;-39
2023/04/14 04:07:18;;;;;;;3.83;2.27;;;;;;;;;;5038154;28;20209;-38
2023/04/14 04:09:46;;;;;;;4.10;2.50;;;;;;;;;;5035330;28;20504;-38
2023/04/14 04:12:17;;;;;;;3.50;1.87;;;;;;;;;;5041277;28;20222;-42
2023/04/14 04:14:44;;;;;;;2.33;1.70;;;;;;;;;;5035845;28;20708;-42
2023/04/14 04:19:49;;;;;;;2.10;1.90;;;;;;;;;;5027299;28;20302;-42
2023/04/14 04:22:18;;;;;;;2.90;2.00;;;;;;;;;;5030681;28;20202;-40
2023/04/14 04:24:46;;;;;;;2.40;1.93;;;;;;;;;;5029319;28;20231;-40
2023/04/14 04:27:18;;;;;;;2.83;2.00;;;;;;;;;;5008374;28;20686;-44
2023/04/14 04:29:45;;;;;;;3.70;2.10;;;;;;;;;;5016381;28;20531;-37
2023/04/14 04:32:13;;;;;;;3.03;2.03;;;;;;;;;;5014259;28;20231;-42
2023/04/14 04:34:40;;;;;;;4.00;2.43;;;;;;;;;;5014545;28;20227;-43
2023/04/14 04:37:07;;;;;;;3.77;2.17;;;;;;;;;;5023382;28;20592;-40
2023/04/14 04:39:34;;;;;;;2.80;2.23;;;;;;;;;;5013204;28;20217;-44
2023/04/14 04:42:02;;;;;;;3.63;1.57;;;;;;;;;;5011109;28;20589;-41
2023/04/14 04:44:31;;;;;;;3.60;1.63;;;;;;;;;;5012352;28;20255;-38
2023/04/14 04:46:59;;;;;;;2.80;2.13;;;;;;;;;;4999945;28;20263;-43
2023/04/14 04:49:26;;;;;;;4.20;2.00;;;;;;;;;;5015513;28;20238;-36
2023/04/14 04:51:55;;;;;;;2.30;2.10;;;;;;;;;;5033723;28;20214;-39
2023/04/14 04:54:22;;;;;;;3.03;2.30;;;;;;;;;;5023495;28;20558;-40
2023/04/14 04:56:49;;;;;;;2.93;2.17;;;;;;;;;;5010714;28;20209;-39
2023/04/14 04:59:17;;;;;;;3.93;2.60;;;;;;;;;;5014226;28;20210;-37
2023/04/14 05:01:45;;;;;;;4.57;2.57;;;;;;;;;;5007044;28;20208;-37
2023/04/14 05:04:12;;;;;;;3.47;2.17;;;;;;;;;;5010723;28;20230;-41
2023/04/14 05:06:39;;;;;;;2.47;2.27;;;;;;;;;;5014904;28;20294;-38
2023/04/14 05:09:07;;;;;;;2.67;2.07;;;;;;;;;;5010673;28;20677;-38
2023/04/14 05:11:34;;;;;;;3.30;2.27;;;;;;;;;;5004124;28;20280;-43
2023/04/14 05:14:01;;;;;;;5.03;2.63;;;;;;;;;;5018133;28;20222;-38
2023/04/14 05:16:29;;;;;;;5.53;2.37;;;;;;;;;;5018222;28;20572;-40
2023/04/14 05:18:57;;;;;;;2.77;2.03;;;;;;;;;;5001619;28;20259;-38
2023/04/14 05:21:24;;;;;;;5.43;2.37;;;;;;;;;;5017583;28;20294;-41
2023/04/14 05:23:51;;;;;;;4.27;3.07;;;;;;;;;;5010394;28;20224;-40
2023/04/14 05:26:18;;;;;;;2.83;2.30;;;;;;;;;;5005193;28;20204;-40
2023/04/14 05:28:46;;;;;;;2.30;2.10;;;;;;;;;;5019953;28;20302;-43
2023/04/14 05:31:13;;;;;;;5.63;2.40;;;;;;;;;;5004036;28;20595;-42
2023/04/14 05:33:40;;;;;;;2.30;1.93;;;;;;;;;;5009745;28;20222;-43
2023/04/14 05:36:09;;;;;;;3.20;2.17;;;;;;;;;;5006212;28;20430;-43
2023/04/14 05:38:38;;;;;;;2.40;2.20;;;;;;;;;;5012596;28;20212;-37
2023/04/14 05:41:06;;;;;;;1.93;1.83;;;;;;;;;;5012491;28;20207;-41
2023/04/14 05:43:33;;;;;;;4.43;1.77;;;;;;;;;;5023034;28;20241;-42
2023/04/14 05:46:01;;;;;;;2.67;2.07;;;;;;;;;;5002180;28;20218;-37
2023/04/14 05:48:31;;;;;;;5.23;4.73;;;;;;;;;;5008567;28;20768;-42
2023/04/14 05:50:59;;;;;;;3.97;3.47;;;;;;;;;;5021819;28;20219;-43
2023/04/14 05:53:27;;;;;;;3.83;3.40;;;;;;;;;;5001201;28;20234;-41
2023/04/14 05:55:55;;;;;;;3.27;2.80;;;;;;;;;;5000743;28;20567;-40
2023/04/14 05:58:25;;;;;;;3.40;3.10;;;;;;;;;;5004808;28;20235;-38
2023/04/14 06:00:52;;;;;;;2.97;2.63;;;;;;;;;;5008247;28;20203;-42
2023/04/14 06:03:19;;;;;;;2.97;2.60;;;;;;;;;;5006576;28;20305;-40
2023/04/14 06:05:49;;;;;;;3.30;2.30;;;;;;;;;;5021770;28;20668;-42
2023/04/14 06:08:16;;;;;;;3.07;2.73;;;;;;;;;;5019013;28;20234;-37
2023/04/14 06:10:45;;;;;;;6.47;2.90;;;;;;;;;;5002158;28;20201;-41
2023/04/14 06:13:12;;;;;;;3.00;2.23;;;;;;;;;;5006735;28;20267;-40
2023/04/14 06:15:39;;;;;;;3.30;2.43;;;;;;;;;;5016656;28;20202;-39
2023/04/14 06:18:06;;;;;;;4.47;2.80;;;;;;;;;;5000865;28;20203;-40
2023/04/14 06:20:33;;;;;;;3.17;2.40;;;;;;;;;;5015924;28;20202;-40
2023/04/14 06:23:00;;;;;;;4.10;2.90;;;;;;;;;;5032089;28;20228;-42
2023/04/14 06:25:27;;;;;;;4.83;3.37;;;;;;;;;;5011917;28;20223;-40
2023/04/14 06:27:56;;;;;;;2.93;2.40;;;;;;;;;;5001146;28;20199;-40
2023/04/14 06:30:24;;;;;;;4.17;2.97;;;;;;;;;;5024413;28;20286;-39
2023/04/14 06:32:55;;;;;;;3.50;2.50;;;;;;;;;;4996712;28;20415;-40
2023/04/14 06:35:22;;;;;;;2.90;2.27;;;;;;;;;;5024581;28;20668;-37
2023/04/14 06:37:50;;;;;;;2.57;2.33;;;;;;;;;;5012515;28;20296;-39
2023/04/14 06:40:17;;;;;;;5.33;2.67;;;;;;;;;;5006768;28;20219;-43
2023/04/14 06:42:44;;;;;;;3.50;2.90;;;;;;;;;;5015655;28;20286;-45
2023/04/14 06:45:13;;;;;;;5.50;2.80;;;;;;;;;;5017988;28;20203;-37
2023/04/14 06:47:40;;;;;;;3.43;2.60;;;;;;;;;;4996792;28;20589;-43
2023/04/14 06:50:08;;;;;;;4.00;2.20;;;;;;;;;;5014726;28;20213;-37
2023/04/14 06:52:35;;;;;;;4.53;2.53;;;;;;;;;;5008261;28;20506;-36
2023/04/14 06:55:03;;;;;;;3.30;2.30;;;;;;;;;;4991431;28;20212;-40
2023/04/14 06:57:30;;;;;;;6.03;2.83;;;;;;;;;;5009336;28;20680;-40
2023/04/14 06:59:57;;;;;;;3.80;2.20;;;;;;;;;;5016471;28;20199;-36
2023/04/14 07:02:27;;;;;;;4.17;2.00;;;;;;;;;;5004668;28;20208;-40
2023/04/14 07:04:54;;;;;;;4.57;1.87;;;;;;;;;;5015389;28;20211;-41
2023/04/14 07:07:23;;;;;;;8.23;2.37;;;;;;;;;;5028896;28;20297;-38
2023/04/14 07:09:50;;;;;;;4.00;2.00;;;;;;;;;;5017655;28;20640;-41
2023/04/14 07:12:17;;;;;;;5.23;1.87;;;;;;;;;;5011001;28;20227;-40
2023/04/14 07:14:50;;;;;;;4.80;2.20;;;;;;;;;;5023770;28;20223;-41
2023/04/14 07:17:17;;;;;;;3.33;1.97;;;;;;;;;;5006032;28;20510;-41
2023/04/14 07:19:46;;;;;;;1.93;1.73;;;;;;;;;;5013479;28;20203;-37
2023/04/14 07:22:13;;;;;;;3.20;2.10;;;;;;;;;;5031575;28;20208;-39
2023/04/14 07:24:40;;;;;;;3.93;1.80;;;;;;;;;;5032139;28;20237;-41
2023/04/14 07:27:13;;;;;;;3.47;1.60;;;;;;;;;;5010429;28;20211;-39
2023/04/14 07:29:41;;;;;;;4.37;2.00;;;;;;;;;;5013803;28;20203;-39
2023/04/14 07:32:08;;;;;;;3.23;1.57;;;;;;;;;;5015477;28;20269;-44
2023/04/14 07:34:35;;;;;;;5.13;1.57;;;;;;;;;;5004264;28;20255;-38
2023/04/14 07:37:05;;;;;;;2.17;1.43;;;;;;;;;;4997406;28;20583;-36
2023/04/14 07:39:32;;;;;;;3.97;1.73;;;;;;;;;;5012676;28;20276;-38
2023/04/14 07:42:00;;;;;;;5.27;1.80;;;;;;;;;;5031589;28;20744;-43
2023/04/14 07:44:27;;;;;;;3.00;1.80;;;;;;;;;;5012732;28;20276;-34
2023/04/14 07:46:54;;;;;;;5.10;1.87;;;;;;;;;;5008461;28;20214;-41
2023/04/14 07:49:22;;;;;;;5.97;2.10;;;;;;;;;;5006295;28;20207;-42
2023/04/14 07:51:49;;;;;;;4.57;1.77;;;;;;;;;;5019666;28;20529;-41
2023/04/14 07:54:18;;;;;;;5.90;1.83;;;;;;;;;;5010507;28;20613;-42
2023/04/14 07:56:45;;;;;;;5.17;1.80;;;;;;;;;;4997482;28;20216;-40
2023/04/14 07:59:12;;;;;;;4.60;1.70;;;;;;;;;;5018053;28;20286;-44
2023/04/14 08:01:39;;;;;;;4.27;1.90;;;;;;;;;;5017869;28;20211;-41
2023/04/14 08:04:06;;;;;;;5.67;2.03;;;;;;;;;;5005184;28;20229;-43
2023/04/14 08:06:34;;;;;;;5.10;1.70;;;;;;;;;;5017924;28;20669;-37
2023/04/14 08:09:01;;;;;;;3.97;1.70;;;;;;;;;;5000206;28;20213;-34
2023/04/14 08:11:29;;;;;;;5.13;1.97;;;;;;;;;;5027734;28;20210;-40
2023/04/14 08:13:56;;;;;;;3.77;1.70;;;;;;;;;;5012242;28;20702;-44
2023/04/14 08:16:24;;;;;;;4.93;1.97;;;;;;;;;;5002992;28;20212;-40
2023/04/14 08:18:51;;;;;;;4.23;1.73;;;;;;;;;;5008815;28;20218;-38
2023/04/14 08:21:18;;;;;;;7.00;1.70;;;;;;;;;;5030330;28;20222;-37
2023/04/14 08:23:45;;;;;;;2.93;1.70;;;;;;;;;;5031754;28;20224;-42
2023/04/14 08:26:13;;;;;;;5.63;2.00;;;;;;;;;;5012832;28;20218;-43
2023/04/14 08:28:41;;;;;;;4.13;1.70;;;;;;;;;;5021526;28;20204;-39
2023/04/14 08:31:11;;;;;;;4.50;1.83;;;;;;;;;;5011076;28;20217;-42
2023/04/14 08:33:38;;;;;;;3.77;1.50;;;;;;;;;;5000433;28;20252;-38
2023/04/14 08:36:05;;;;;;;4.73;2.03;;;;;;;;;;4999995;28;20262;-43
2023/04/14 08:38:32;;;;;;;3.40;1.63;;;;;;;;;;5007695;28;20654;-40
2023/04/14 08:41:01;;;;;;;4.10;1.90;;;;;;;;;;5006962;28;20554;-37
2023/04/14 08:43:28;;;;;;;3.70;1.47;;;;;;;;;;5031328;28;20304;-39
2023/04/14 08:45:58;;;;;;;4.60;1.73;;;;;;;;;;5029130;28;20231;-43
2023/04/14 08:48:29;;;;;;;4.80;1.80;;;;;;;;;;5005432;28;20348;-41
2023/04/14 08:51:00;;;;;;;2.87;2.00;;;;;;;;;;5029411;28;20656;-43
2023/04/14 08:53:28;;;;;;;2.03;1.60;;;;;;;;;;5013910;28;20857;-41
2023/04/14 08:55:55;;;;;;;4.17;2.07;;;;;;;;;;5018119;28;20195;-41
2023/04/14 08:58:22;;;;;;;7.60;1.73;;;;;;;;;;5033866;28;20204;-41
2023/04/14 09:00:50;;;;;;;4.93;1.57;;;;;;;;;;5002174;28;20207;-38
2023/04/14 09:03:19;;;;;;;3.33;1.93;;;;;;;;;;5005855;28;20219;-41
2023/04/14 09:05:46;;;;;;;4.10;2.53;;;;;;;;;;5004185;28;20204;-38
2023/04/14 09:08:13;;;;;;;3.63;2.03;;;;;;;;;;4998127;28;20222;-40
2023/04/14 09:10:41;;;;;;;3.33;2.10;;;;;;;;;;5017941;28;20210;-39
2023/04/14 09:13:08;;;;;;;6.33;2.60;;;;;;;;;;5007395;28;20780;-41
2023/04/14 09:15:37;;;;;;;4.80;2.03;;;;;;;;;;5018018;28;20210;-38
2023/04/14 09:18:04;;;;;;;5.30;2.23;;;;;;;;;;5002821;28;20219;-37
2023/04/14 09:20:33;;;;;;;2.73;1.53;;;;;;;;;;5008530;28;20223;-43
2023/04/14 09:23:00;;;;;;;5.20;1.80;;;;;;;;;;5033264;28;20229;-37
2023/04/14 09:25:28;;;;;;;6.47;1.90;;;;;;;;;;5018432;28;20208;-44
2023/04/14 09:27:55;;;;;;;5.03;1.83;;;;;;;;;;5013441;28;20250;-42
2023/04/14 09:30:23;;;;;;;3.00;1.80;;;;;;;;;;5029555;28;20210;-44
2023/04/14 09:32:53;;;;;;;4.77;2.13;;;;;;;;;;5008035;28;20227;-44
2023/04/14 09:35:20;;;;;;;2.80;1.80;;;;;;;;;;5024816;28;20207;-39
2023/04/14 09:37:48;;;;;;;5.03;2.43;;;;;;;;;;5013199;28;20195;-41
2023/04/14 09:40:28;;;;;;;6.60;2.47;;;;;;;;;;5007072;28;20670;-44
2023/04/14 09:42:56;;;;;;;5.20;2.23;;;;;;;;;;5008644;28;20228;-41
2023/04/14 09:45:41;;;;;;;7.67;2.23;;;;;;;;;;5026473;28;20203;-38
2023/04/14 09:48:09;;;;;;;3.10;2.00;;;;;;;;;;4997975;28;20675;-44
2023/04/14 09:50:56;;;;;;;4.10;2.20;;;;;;;;;;5018717;28;20248;-40
2023/04/14 09:53:27;;;;;;;6.70;2.20;;;;;;;;;;5002209;28;20227;-37
2023/04/14 09:55:54;;;;;;;7.20;1.97;;;;;;;;;;4997873;28;20208;-39
2023/04/14 09:58:21;;;;;;;8.47;1.90;;;;;;;;;;5008110;28;20657;-41
2023/04/14 10:00:49;;;;;;;4.30;2.10;;;;;;;;;;5002697;28;20221;-40
2023/04/14 10:03:18;;;;;;;6.03;1.80;;;;;;;;;;5005212;28;20223;-41
2023/04/14 10:05:47;;;;;;;4.43;1.87;;;;;;;;;;5031755;28;20207;-35
2023/04/14 10:08:14;;;;;;;4.50;2.17;;;;;;;;;;5021680;28;20211;-37
2023/04/14 10:10:43;;;;;;;5.47;2.40;;;;;;;;;;5009943;28;20207;-34
2023/04/14 10:13:13;;;;;;;4.73;1.40;;;;;;;;;;5013727;28;20310;-38
2023/04/14 10:15:41;;;;;;;2.90;1.20;;;;;;;;;;5017041;28;20208;-36
2023/04/14 10:18:08;;;;;;;9.23;1.90;;;;;;;;;;5008050;28;20223;-39
2023/04/14 10:20:36;;;;;;;5.10;1.43;;;;;;;;;;5029969;28;20206;-38
2023/04/14 10:23:03;;;;;;;1.33;1.03;;;;;;;;;;5032257;28;20310;-42
2023/04/14 10:25:34;;;;;;;2.73;1.50;;;;;;;;;;5005895;28;20214;-42
2023/04/14 10:28:03;;;;;;;4.87;1.30;;;;;;;;;;5011906;28;20206;-39
2023/04/14 10:30:31;;;;;;;5.53;2.30;;;;;;;;;;5031933;28;20230;-42
2023/04/14 10:32:58;;;;;;;4.07;1.70;;;;;;;;;;5002736;28;20234;-40
2023/04/14 10:35:25;;;;;;;4.57;1.63;;;;;;;;;;5012100;28;20640;-44
2023/04/14 10:37:53;;;;;;;5.43;1.10;;;;;;;;;;5012413;28;20258;-37
2023/04/14 10:40:21;;;;;;;3.47;1.60;;;;;;;;;;5010432;28;20211;-41
2023/04/14 10:42:54;;;;;;;5.87;1.60;;;;;;;;;;5020206;28;20198;-43
2023/04/14 10:45:23;;;;;;;3.00;1.60;;;;;;;;;;5012760;28;20237;-40
2023/04/14 10:47:50;;;;;;;3.10;1.67;;;;;;;;;;4997175;28;20203;-40
2023/04/14 10:50:18;;;;;;;5.77;1.50;;;;;;;;;;5016111;28;20317;-42
2023/04/14 10:52:53;;;;;;;6.30;1.57;;;;;;;;;;5031644;28;20313;-40
2023/04/14 10:55:22;;;;;;;3.47;1.20;;;;;;;;;;4997874;28;20207;-44
2023/04/14 10:57:49;;;;;;;5.30;1.30;;;;;;;;;;5023776;28;20562;-40
2023/04/14 11:00:25;;;;;;;3.63;1.27;;;;;;;;;;5032095;28;20215;-40
2023/04/14 11:02:59;;;;;;;2.97;1.40;;;;;;;;;;5007601;28;20229;-39
2023/04/14 11:05:26;;;;;;;2.87;1.57;;;;;;;;;;5021070;28;20575;-40
2023/04/14 11:07:56;;;;;;;5.47;1.87;;;;;;;;;;5036363;28;20207;-42
2023/04/14 11:10:27;;;;;;;5.07;1.73;;;;;;;;;;5034483;28;20203;-37
2023/04/14 11:12:55;;;;;;;6.17;1.70;;;;;;;;;;5002645;28;20285;-40
2023/04/14 11:15:24;;;;;;;3.77;1.63;;;;;;;;;;5021143;28;20211;-43
2023/04/14 11:17:53;;;;;;;4.00;1.20;;;;;;;;;;5002271;28;20210;-35
2023/04/14 11:20:22;;;;;;;5.00;1.50;;;;;;;;;;5011853;28;20199;-40
2023/04/14 11:22:50;;;;;;;4.27;1.23;;;;;;;;;;5035623;28;20313;-41
2023/04/14 11:25:17;;;;;;;5.03;1.60;;;;;;;;;;5015083;28;20294;-40
2023/04/14 11:27:46;;;;;;;3.57;1.30;;;;;;;;;;5012869;28;20210;-40
2023/04/14 11:30:15;;;;;;;6.33;1.50;;;;;;;;;;5035575;28;20293;-37
2023/04/14 11:32:47;;;;;;;4.20;1.40;;;;;;;;;;5015819;28;20809;-40
2023/04/14 11:35:15;;;;;;;5.80;1.27;;;;;;;;;;5009711;28;20281;-39
2023/04/14 11:37:42;;;;;;;5.00;1.57;;;;;;;;;;5032149;28;20203;-41
2023/04/14 11:40:10;;;;;;;3.73;1.30;;;;;;;;;;5024864;28;20230;-40
2023/04/14 11:42:37;;;;;;;8.10;1.63;;;;;;;;;;5004912;28;20239;-41
2023/04/14 11:45:32;;;;;;;3.07;1.27;;;;;;;;;;5010736;28;20208;-37
2023/04/14 11:48:02;;;;;;;4.43;1.50;;;;;;;;;;5015453;28;20683;-40
2023/04/14 11:50:31;;;;;;;6.63;1.40;;;;;;;;;;5024161;28;20210;-44
2023/04/14 11:52:59;;;;;;;6.20;1.63;;;;;;;;;;5035284;28;20236;-41
2023/04/14 11:55:27;;;;;;;1.97;1.00;;;;;;;;;;5018428;28;20208;-38
2023/04/14 11:57:54;;;;;;;5.27;1.33;;;;;;;;;;5023280;28;20602;-38
2023/04/14 12:00:21;;;;;;;5.07;1.50;;;;;;;;;;5015123;28;20210;-38
2023/04/14 12:02:49;;;;;;;3.70;1.20;;;;;;;;;;5007117;28;20262;-40
2023/04/14 12:05:21;;;;;;;3.47;1.20;;;;;;;;;;5010784;28;20246;-39
2023/04/14 12:07:50;;;;;;;1.70;1.00;;;;;;;;;;5006880;28;20240;-41
2023/04/14 12:10:22;;;;;;;5.40;1.40;;;;;;;;;;5007423;28;20235;-39
2023/04/14 12:12:50;;;;;;;3.27;0.97;;;;;;;;;;5008255;28;20351;-36
2023/04/14 12:15:35;;;;;;;5.17;1.27;;;;;;;;;;5015837;28;20218;-43
2023/04/14 12:18:03;;;;;;;1.93;1.00;;;;;;;;;;5008065;28;20255;-40
2023/04/14 12:20:41;;;;;;;4.17;0.93;;;;;;;;;;5021627;28;20221;-40
2023/04/14 12:23:08;;;;;;;2.03;1.00;;;;;;;;;;5035217;28;20226;-40
2023/04/14 12:25:36;;;;;;;3.60;0.83;;;;;;;;;;5024324;28;20298;-38
2023/04/14 12:28:05;;;;;;;4.27;1.27;;;;;;;;;;5016148;28;20294;-40
2023/04/14 12:30:32;;;;;;;3.13;1.00;;;;;;;;;;5013709;28;20207;-40
2023/04/14 12:33:00;;;;;;;2.63;0.90;;;;;;;;;;5009166;28;20234;-43
2023/04/14 12:35:34;;;;;;;5.03;1.00;;;;;;;;;;5025147;28;20206;-40
2023/04/14 12:38:09;;;;;;;3.40;0.90;;;;;;;;;;5035182;28;20187;-44
2023/04/14 12:40:41;;;;;;;1.17;0.80;;;;;;;;;;5015053;28;20206;-42
2023/04/14 12:43:08;;;;;;;4.33;1.00;;;;;;;;;;5006339;28;20289;-42
2023/04/14 12:45:42;;;;;;;3.00;1.27;;;;;;;;;;5016805;28;20278;-38
2023/04/14 12:48:21;;;;;;;2.10;0.73;;;;;;;;;;5013804;28;20203;-40
2023/04/14 12:50:48;;;;;;;4.50;1.70;;;;;;;;;;5029973;28;20199;-44
2023/04/14 12:53:27;;;;;;;4.53;1.30;;;;;;;;;;5014058;28;20264;-40
2023/04/14 12:56:04;;;;;;;3.13;1.40;;;;;;;;;;5007828;28;20253;-36
2023/04/14 12:58:41;;;;;;;4.10;1.57;;;;;;;;;;5030888;28;20241;-40
2023/04/14 13:01:09;;;;;;;3.20;1.00;;;;;;;;;;5025907;28;20214;-38
2023/04/14 13:03:41;;;;;;;3.10;1.10;;;;;;;;;;5008878;28;20223;-39
2023/04/14 13:06:08;;;;;;;3.47;1.30;;;;;;;;;;5022217;28;20218;-35
2023/04/14 13:08:37;;;;;;;2.23;1.07;;;;;;;;;;5013490;28;20227;-39
2023/04/14 13:11:04;;;;;;;3.53;1.40;;;;;;;;;;5004774;28;20207;-42
2023/04/14 13:13:32;;;;;;;2.10;0.90;;;;;;;;;;5029502;28;20309;-39
2023/04/14 13:16:00;;;;;;;2.53;1.23;;;;;;;;;;5001793;28;20674;-38
2023/04/14 13:18:27;;;;;;;2.83;1.00;;;;;;;;;;5010761;28;20221;-41
2023/04/14 13:21:04;;;;;;;3.53;1.40;;;;;;;;;;5013333;28;20203;-43
2023/04/14 13:23:31;;;;;;;2.77;0.80;;;;;;;;;;5011071;28;20309;-42
2023/04/14 13:26:00;;;;;;;2.33;0.83;;;;;;;;;;4993942;28;20208;-39
2023/04/14 13:28:28;;;;;;;2.93;0.83;;;;;;;;;;5009402;28;20650;-39
2023/04/14 13:30:57;;;;;;;2.77;1.00;;;;;;;;;;5011415;28;20218;-44
2023/04/14 13:33:25;;;;;;;3.33;1.23;;;;;;;;;;5005534;28;20612;-37
2023/04/14 13:35:54;;;;;;;3.60;0.90;;;;;;;;;;4999285;28;20214;-39
2023/04/14 13:38:21;;;;;;;7.00;1.23;;;;;;;;;;5032370;28;20680;-37
2023/04/14 13:40:48;;;;;;;7.87;1.20;;;;;;;;;;5005608;28;20286;-42
2023/04/14 13:43:18;;;;;;;2.80;1.07;;;;;;;;;;5003638;28;20232;-40
2023/04/14 13:45:48;;;;;;;1.73;1.00;;;;;;;;;;5005731;28;20200;-39
2023/04/14 13:48:15;;;;;;;1.90;1.07;;;;;;;;;;5003320;28;20215;-37
2023/04/14 13:50:52;;;;;;;2.23;0.80;;;;;;;;;;5013083;28;20298;-37
2023/04/14 13:53:19;;;;;;;1.60;0.50;;;;;;;;;;5013195;28;20249;-36
2023/04/14 13:55:54;;;;;;;3.90;1.13;;;;;;;;;;5005402;28;20585;-41
2023/04/14 13:58:29;;;;;;;1.70;1.00;;;;;;;;;;5009802;28;20222;-35
2023/04/14 14:00:56;;;;;;;2.73;1.00;;;;;;;;;;5004965;28;20713;-40
2023/04/14 14:03:23;;;;;;;5.53;1.20;;;;;;;;;;5006745;28;20224;-38
2023/04/14 14:05:51;;;;;;;1.73;0.90;;;;;;;;;;5012917;28;20454;-42
2023/04/14 14:08:18;;;;;;;1.50;1.00;;;;;;;;;;5032130;28;20206;-39
2023/04/14 14:10:45;;;;;;;2.33;1.27;;;;;;;;;;5009919;28;20211;-38
2023/04/14 14:13:12;;;;;;;2.50;0.90;;;;;;;;;;5006174;28;20604;-39
2023/04/14 14:15:41;;;;;;;1.80;1.23;;;;;;;;;;5006666;28;20543;-39
2023/04/14 14:18:08;;;;;;;4.80;1.30;;;;;;;;;;4999664;28;20303;-39
2023/04/14 14:20:37;;;;;;;3.93;1.10;;;;;;;;;;5015917;28;20203;-39
2023/04/14 14:23:04;;;;;;;5.30;1.30;;;;;;;;;;5031460;28;20222;-37
2023/04/14 14:25:31;;;;;;;3.83;1.00;;;;;;;;;;5027307;28;20210;-39
2023/04/14 14:27:58;;;;;;;2.03;0.90;;;;;;;;;;5019575;28;20199;-40
2023/04/14 14:30:26;;;;;;;2.70;1.00;;;;;;;;;;5018245;28;20218;-39
2023/04/14 14:32:54;;;;;;;4.07;1.33;;;;;;;;;;5006350;28;20237;-39
2023/04/14 14:35:21;;;;;;;6.67;1.50;;;;;;;;;;5021722;28;20278;-40
2023/04/14 14:37:48;;;;;;;1.93;0.97;;;;;;;;;;5033975;28;20264;-40
2023/04/14 14:40:15;;;;;;;2.83;1.20;;;;;;;;;;5017767;28;20233;-42
2023/04/14 14:42:43;;;;;;;3.33;1.37;;;;;;;;;;5022304;28;20211;-43
2023/04/14 14:45:11;;;;;;;4.47;0.70;;;;;;;;;;5016286;28;20204;-38
2023/04/14 14:47:38;;;;;;;2.67;1.13;;;;;;;;;;5006761;28;20219;-38
2023/04/14 14:50:08;;;;;;;6.50;1.57;;;;;;;;;;5013002;28;20206;-40
2023/04/14 14:52:35;;;;;;;0.80;0.60;;;;;;;;;;5016635;28;20213;-40
2023/04/14 14:55:02;;;;;;;3.30;1.10;;;;;;;;;;5010301;28;20575;-36
2023/04/14 14:57:30;;;;;;;2.47;1.07;;;;;;;;;;5009692;28;20222;-41
2023/04/14 14:59:57;;;;;;;2.10;0.90;;;;;;;;;;5034808;28;20211;-35
2023/04/14 15:02:24;;;;;;;3.47;0.90;;;;;;;;;;5008003;28;20212;-41
2023/04/14 15:04:52;;;;;;;2.83;0.80;;;;;;;;;;5025943;28;20231;-42
2023/04/14 15:07:20;;;;;;;2.00;0.90;;;;;;;;;;5035095;28;20230;-39
2023/04/14 15:09:48;;;;;;;1.73;1.10;;;;;;;;;;5019349;28;20206;-33
2023/04/14 15:12:15;;;;;;;1.97;1.10;;;;;;;;;;5012993;28;20574;-43
2023/04/14 15:14:42;;;;;;;3.57;1.70;;;;;;;;;;5006002;28;20233;-37
2023/04/14 15:17:10;;;;;;;1.63;0.80;;;;;;;;;;5004085;28;20623;-36
2023/04/14 15:19:37;;;;;;;2.00;0.83;;;;;;;;;;5018743;28;20325;-40
2023/04/14 15:22:05;;;;;;;3.67;1.10;;;;;;;;;;5012433;28;20359;-39
2023/04/14 15:24:33;;;;;;;2.80;0.80;;;;;;;;;;5003768;28;20279;-41
2023/04/14 15:27:01;;;;;;;0.93;0.70;;;;;;;;;;5013388;28;20796;-34
2023/04/14 15:29:30;;;;;;;1.13;0.77;;;;;;;;;;5006878;28;20544;-40
2023/04/14 15:31:57;;;;;;;1.57;0.90;;;;;;;;;;4999584;28;20226;-40
2023/04/14 15:34:24;;;;;;;2.77;0.80;;;;;;;;;;5003265;28;20231;-38
2023/04/14 15:36:51;;;;;;;3.10;1.10;;;;;;;;;;4996704;28;20636;-35
2023/04/14 15:39:19;;;;;;;2.40;1.10;;;;;;;;;;5007818;28;20211;-43
2023/04/14 15:41:49;;;;;;;2.77;1.43;;;;;;;;;;5012143;28;20206;-40
2023/04/14 15:44:16;;;;;;;2.23;1.00;;;;;;;;;;5011550;28;20277;-40